Time;durP1;ratioP1;P1;durP2;ratioP2;P2;SDS_P1;SDS_P2;PMS_P1;PMS_P2;Temp;Humidity;BMP_temperature;BMP_pressure;BME280_temperature;BME280_humidity;BME280_pressure;Samples;Min_cycle;Max_cycle;Signal;HPM_P1;HPM_P2
2022/03/06 00:00:09;;;;;;;40.83;25.52;;;4.80;96.80;;;;;;5075273;28;20029;-50
2022/03/06 00:02:36;;;;;;;38.70;23.58;;;;;;;;;;5073169;28;20043;-48
2022/03/06 00:05:03;;;;;;;43.42;27.83;;;4.80;98.40;;;;;;5074830;28;20078;-49
2022/03/06 00:07:29;;;;;;;40.20;26.08;;;;;;;;;;5073137;28;20041;-48
2022/03/06 00:09:56;;;;;;;42.40;27.75;;;;;;;;;;5075254;28;20020;-48
2022/03/06 00:12:21;;;;;;;42.70;27.35;;;4.30;98.80;;;;;;5075005;28;20025;-48
2022/03/06 00:14:47;;;;;;;45.55;28.70;;;4.40;99.90;;;;;;5074914;28;20051;-48
2022/03/06 00:17:13;;;;;;;43.55;27.63;;;4.30;99.90;;;;;;5090248;28;20047;-50
2022/03/06 00:19:39;;;;;;;43.65;26.67;;;;;;;;;;5074728;28;20471;-47
2022/03/06 00:22:05;;;;;;;43.05;25.42;;;;;;;;;;5074672;28;20163;-50
2022/03/06 00:24:31;;;;;;;47.30;27.55;;;;;;;;;;5075027;28;20169;-49
2022/03/06 00:26:57;;;;;;;48.72;26.83;;;;;;;;;;5074840;28;20020;-50
2022/03/06 00:29:24;;;;;;;42.20;27.02;;;;;;;;;;5039375;28;20033;-49
2022/03/06 00:31:49;;;;;;;40.22;26.63;;;4.30;99.90;;;;;;5074464;28;20439;-49
2022/03/06 00:34:15;;;;;;;42.00;28.05;;;4.10;99.90;;;;;;5039502;28;20045;-48
2022/03/06 00:36:41;;;;;;;42.50;27.42;;;4.10;99.90;;;;;;5074754;28;20395;-51
2022/03/06 00:39:07;;;;;;;43.90;27.15;;;4.40;99.90;;;;;;5039153;28;20400;-50
2022/03/06 00:41:33;;;;;;;43.50;28.80;;;4.50;99.90;;;;;;5074196;28;20028;-48
2022/03/06 00:43:59;;;;;;;48.15;29.00;;;4.70;99.90;;;;;;5074381;28;20044;-49
2022/03/06 00:46:24;;;;;;;48.63;29.52;;;4.80;99.90;;;;;;5039333;28;20499;-48
2022/03/06 00:48:50;;;;;;;47.17;29.40;;;5.00;99.90;;;;;;5074151;28;20107;-49
2022/03/06 00:51:16;;;;;;;45.45;30.38;;;;;;;;;;5074166;28;20028;-50
2022/03/06 00:53:43;;;;;;;49.45;31.60;;;;;;;;;;5074153;28;20029;-48
2022/03/06 00:56:09;;;;;;;51.47;32.50;;;;;;;;;;5074189;28;20032;-50
2022/03/06 00:58:37;;;;;;;45.72;30.90;;;;;;;;;;5074024;28;20021;-48
2022/03/06 01:01:04;;;;;;;51.45;30.63;;;5.20;99.90;;;;;;5073908;28;20400;-48
2022/03/06 01:03:30;;;;;;;46.63;30.83;;;5.00;99.90;;;;;;5074028;28;20388;-50
2022/03/06 01:05:56;;;;;;;48.00;29.83;;;5.00;99.90;;;;;;5074226;28;20107;-50
2022/03/06 01:08:23;;;;;;;46.67;30.98;;;5.20;99.90;;;;;;5072182;28;20071;-47
2022/03/06 01:10:50;;;;;;;48.78;31.38;;;5.10;99.90;;;;;;5073912;28;20074;-51
2022/03/06 01:13:16;;;;;;;48.35;30.88;;;5.20;99.90;;;;;;5073843;28;20039;-47
2022/03/06 01:15:42;;;;;;;46.75;30.38;;;5.30;99.90;;;;;;5073791;28;20082;-50
2022/03/06 01:18:09;;;;;;;52.22;32.83;;;;;;;;;;5038833;28;20036;-49
2022/03/06 01:20:35;;;;;;;53.83;33.78;;;;;;;;;;5073699;28;20453;-47
2022/03/06 01:23:01;;;;;;;48.22;31.10;;;;;;;;;;5088852;28;20119;-48
2022/03/06 01:25:27;;;;;;;48.83;31.50;;;5.40;99.90;;;;;;5073714;28;20028;-49
2022/03/06 01:27:53;;;;;;;50.45;31.98;;;5.60;99.90;;;;;;5073744;28;20028;-50
2022/03/06 01:30:21;;;;;;;50.92;30.38;;;5.70;99.90;;;;;;5072867;28;20400;-48
2022/03/06 01:32:48;;;;;;;46.72;30.30;;;5.70;99.90;;;;;;5073341;28;20473;-48
2022/03/06 01:35:14;;;;;;;48.80;30.17;;;5.50;99.90;;;;;;5075065;28;20472;-48
2022/03/06 01:37:39;;;;;;;48.20;31.02;;;5.30;99.90;;;;;;5089342;28;20055;-48
2022/03/06 01:40:07;;;;;;;48.35;31.05;;;5.30;99.90;;;;;;5054620;28;20052;-50
2022/03/06 01:42:33;;;;;;;48.25;31.00;;;5.40;99.90;;;;;;5054825;28;20127;-49
2022/03/06 01:44:59;;;;;;;49.33;32.15;;;5.50;99.90;;;;;;5088569;28;20040;-47
2022/03/06 01:47:31;;;;;;;57.78;34.75;;;5.50;99.90;;;;;;5073394;28;20062;-49
2022/03/06 01:49:57;;;;;;;60.35;36.38;;;5.70;99.90;;;;;;5073750;28;20523;-52
2022/03/06 01:52:23;;;;;;;51.33;32.95;;;5.70;99.90;;;;;;5038665;28;20033;-50
2022/03/06 01:54:48;;;;;;;57.00;33.67;;;5.70;99.90;;;;;;5072515;28;20033;-47
2022/03/06 01:57:14;;;;;;;48.40;29.80;;;5.70;99.90;;;;;;5071604;28;20085;-49
2022/03/06 01:59:40;;;;;;;47.28;30.75;;;5.80;99.90;;;;;;5073932;28;20103;-49
2022/03/06 02:02:06;;;;;;;44.75;28.70;;;5.80;99.90;;;;;;5038372;28;20039;-50
2022/03/06 02:04:32;;;;;;;42.25;28.55;;;5.80;99.90;;;;;;5073277;28;20036;-49
2022/03/06 02:06:59;;;;;;;43.35;28.77;;;5.70;99.90;;;;;;5073132;28;20032;-49
2022/03/06 02:09:25;;;;;;;40.50;25.33;;;5.70;99.90;;;;;;5071327;28;20036;-51
2022/03/06 02:14:35;;;;;;;40.25;26.67;;;5.20;99.90;;;;;;5071830;28;20109;-49
2022/03/06 02:17:01;;;;;;;37.58;23.95;;;5.00;99.90;;;;;;5072890;28;20071;-49
2022/03/06 02:19:27;;;;;;;39.63;26.75;;;4.70;99.90;;;;;;5037778;28;20029;-49
2022/03/06 02:21:52;;;;;;;31.38;20.73;;;4.70;99.90;;;;;;5073372;28;20126;-49
2022/03/06 02:24:18;;;;;;;37.95;24.45;;;4.40;99.90;;;;;;5071349;28;20500;-48
2022/03/06 02:26:44;;;;;;;38.92;25.45;;;4.40;99.90;;;;;;5039006;28;20040;-49
2022/03/06 02:29:10;;;;;;;37.33;22.85;;;4.30;99.90;;;;;;5058350;28;20366;-49
2022/03/06 02:31:36;;;;;;;37.47;24.15;;;4.40;99.90;;;;;;5075027;28;20358;-49
2022/03/06 02:34:02;;;;;;;37.40;24.33;;;4.40;99.90;;;;;;5076816;28;20544;-48
2022/03/06 02:36:28;;;;;;;36.55;24.50;;;4.30;99.90;;;;;;5076792;28;20033;-47
2022/03/06 02:38:54;;;;;;;33.97;19.77;;;;;;;;;;5074531;28;20046;-49
2022/03/06 02:41:20;;;;;;;36.05;24.08;;;;;;;;;;5091850;28;20039;-48
2022/03/06 02:43:46;;;;;;;31.65;20.10;;;;;;;;;;5076628;28;20064;-48
2022/03/06 02:46:12;;;;;;;36.05;23.90;;;;;;;;;;5076653;28;20033;-48
2022/03/06 02:48:38;;;;;;;34.75;23.20;;;;;;;;;;5074812;28;20040;-48
2022/03/06 02:51:05;;;;;;;31.50;18.73;;;;;;;;;;5074643;28;20039;-50
2022/03/06 02:53:31;;;;;;;33.78;22.85;;;;;;;;;;5074735;28;20048;-49
2022/03/06 02:55:58;;;;;;;38.60;25.40;;;;;;;;;;5074566;28;20075;-48
2022/03/06 02:58:25;;;;;;;32.63;21.67;;;;;;;;;;5076153;28;20025;-48
2022/03/06 03:00:51;;;;;;;35.72;23.02;;;;;;;;;;5076414;28;20043;-47
2022/03/06 03:03:17;;;;;;;35.35;22.35;;;;;;;;;;5076417;28;20536;-49
2022/03/06 03:05:43;;;;;;;34.55;20.90;;;;;;;;;;5076648;28;20059;-47
2022/03/06 03:08:09;;;;;;;36.10;23.90;;;4.40;99.90;;;;;;5076176;28;20078;-49
2022/03/06 03:10:35;;;;;;;36.00;22.52;;;4.50;99.90;;;;;;5091587;28;20388;-48
2022/03/06 03:13:01;;;;;;;34.05;22.30;;;4.50;99.90;;;;;;5076250;28;20492;-47
2022/03/06 03:15:27;;;;;;;33.50;22.90;;;;;;;;;;5076195;28;20090;-49
2022/03/06 03:17:53;;;;;;;34.75;22.38;;;;;;;;;;5076038;28;20029;-51
2022/03/06 03:20:19;;;;;;;34.85;23.13;;;;;;;;;;5076126;28;20071;-49
2022/03/06 03:22:45;;;;;;;31.13;20.50;;;;;;;;;;5075957;28;20606;-50
2022/03/06 03:25:12;;;;;;;37.22;24.38;;;;;;;;;;5075917;28;20369;-51
2022/03/06 03:27:38;;;;;;;39.83;26.15;;;;;;;;;;5075988;28;20100;-49
2022/03/06 03:30:06;;;;;;;35.28;21.33;;;4.50;99.90;;;;;;5075827;28;20471;-49
2022/03/06 03:32:32;;;;;;;34.42;22.40;;;4.40;99.90;;;;;;5057151;28;20121;-47
2022/03/06 03:34:58;;;;;;;38.58;25.30;;;4.30;99.90;;;;;;5075803;28;20445;-48
2022/03/06 03:37:24;;;;;;;30.38;19.70;;;4.30;99.90;;;;;;5073330;28;20067;-51
2022/03/06 03:39:50;;;;;;;35.72;23.23;;;4.40;99.90;;;;;;5073128;28;20132;-50
2022/03/06 03:42:15;;;;;;;32.70;22.63;;;4.40;99.90;;;;;;5075491;28;20384;-47
2022/03/06 03:44:41;;;;;;;37.58;26.63;;;4.40;99.90;;;;;;5090802;28;20392;-47
2022/03/06 03:47:07;;;;;;;31.73;20.02;;;4.40;99.90;;;;;;5075479;28;20028;-48
2022/03/06 03:49:34;;;;;;;37.28;24.35;;;4.20;99.90;;;;;;5075575;28;20060;-48
2022/03/06 03:51:59;;;;;;;35.00;23.67;;;4.30;99.90;;;;;;5075321;28;20094;-48
2022/03/06 03:54:25;;;;;;;34.63;22.67;;;4.20;99.90;;;;;;5075544;28;20032;-49
2022/03/06 03:56:51;;;;;;;37.28;23.20;;;4.00;99.90;;;;;;5090579;28;20048;-48
2022/03/06 03:59:17;;;;;;;41.00;26.15;;;4.00;99.90;;;;;;5075535;28;20142;-48
2022/03/06 04:01:42;;;;;;;36.28;24.77;;;4.00;99.90;;;;;;5075291;28;20024;-51
2022/03/06 04:04:08;;;;;;;35.08;24.10;;;4.10;99.90;;;;;;5075214;28;20033;-47
2022/03/06 04:06:34;;;;;;;36.65;23.20;;;3.90;99.90;;;;;;5075242;28;20020;-50
2022/03/06 04:09:00;;;;;;;36.70;24.15;;;3.90;99.90;;;;;;5074878;28;20082;-49
2022/03/06 04:11:25;;;;;;;37.10;24.58;;;3.90;99.90;;;;;;5075029;28;20032;-48
2022/03/06 04:13:51;;;;;;;34.50;23.80;;;4.00;99.90;;;;;;5090266;28;20036;-50
2022/03/06 04:16:17;;;;;;;39.50;23.40;;;4.00;99.90;;;;;;5074821;28;20515;-50
2022/03/06 04:18:43;;;;;;;37.42;25.30;;;3.90;99.90;;;;;;5074934;28;20024;-50
2022/03/06 04:21:08;;;;;;;39.33;24.67;;;4.00;99.90;;;;;;5072977;28;20036;-50
2022/03/06 04:23:34;;;;;;;36.35;24.48;;;;;;;;;;5072891;28;20078;-50
2022/03/06 04:26:00;;;;;;;38.45;25.38;;;4.00;99.90;;;;;;5074691;28;20099;-48
2022/03/06 04:28:26;;;;;;;30.75;19.65;;;4.00;99.90;;;;;;5074746;28;20495;-48
2022/03/06 04:30:51;;;;;;;38.20;25.90;;;4.00;99.90;;;;;;5039622;28;20035;-49
2022/03/06 04:33:17;;;;;;;35.97;22.27;;;4.00;99.90;;;;;;5074779;28;20541;-48
2022/03/06 04:35:43;;;;;;;34.83;22.42;;;3.90;99.90;;;;;;5072606;28;20074;-50
2022/03/06 04:38:09;;;;;;;38.45;24.20;;;4.00;99.90;;;;;;5074364;28;20128;-51
2022/03/06 04:40:34;;;;;;;29.75;17.33;;;3.80;99.90;;;;;;5089713;28;20029;-48
2022/03/06 04:43:00;;;;;;;26.35;16.25;;;3.70;99.90;;;;;;5074279;28;20107;-48
2022/03/06 04:45:26;;;;;;;30.60;18.52;;;3.60;99.90;;;;;;5074231;28;20028;-48
2022/03/06 04:47:52;;;;;;;47.63;31.17;;;3.50;99.90;;;;;;5072516;28;20040;-50
2022/03/06 04:50:18;;;;;;;35.33;20.02;;;3.30;99.90;;;;;;5089029;28;20043;-49
2022/03/06 04:52:44;;;;;;;59.97;34.42;;;3.30;99.90;;;;;;5089544;28;20033;-51
2022/03/06 04:55:09;;;;;;;26.38;16.05;;;3.40;99.90;;;;;;5072474;28;20059;-48
2022/03/06 04:57:35;;;;;;;59.78;29.33;;;3.30;99.90;;;;;;5073780;28;20036;-51
2022/03/06 05:00:01;;;;;;;35.10;23.08;;;3.20;99.90;;;;;;5074006;28;20025;-48
2022/03/06 05:02:27;;;;;;;33.47;21.40;;;3.30;99.90;;;;;;5074257;28;20123;-49
2022/03/06 05:04:53;;;;;;;34.85;19.88;;;3.30;99.90;;;;;;5074035;28;20114;-48
2022/03/06 05:07:19;;;;;;;301.75;273.38;;;3.30;99.90;;;;;;5074086;28;20031;-49
2022/03/06 05:09:45;;;;;;;24.88;16.35;;;3.30;99.90;;;;;;5072721;28;20099;-47
2022/03/06 05:12:10;;;;;;;30.52;18.80;;;3.20;99.90;;;;;;5074234;28;20520;-51
2022/03/06 05:14:37;;;;;;;36.63;24.00;;;3.10;99.90;;;;;;5074256;28;20031;-48
2022/03/06 05:17:03;;;;;;;34.20;20.52;;;3.10;99.90;;;;;;5073990;28;20071;-51
2022/03/06 05:19:29;;;;;;;142.52;126.88;;;3.00;99.90;;;;;;5073964;28;20408;-47
2022/03/06 05:21:54;;;;;;;41.30;25.73;;;3.00;99.90;;;;;;5074095;28;20035;-49
2022/03/06 05:24:20;;;;;;;44.55;27.30;;;3.00;99.90;;;;;;5073739;28;20404;-51
2022/03/06 05:26:46;;;;;;;44.80;26.92;;;3.20;99.90;;;;;;5071965;28;20075;-47
2022/03/06 05:29:12;;;;;;;44.33;27.65;;;3.40;99.90;;;;;;5073832;28;20052;-47
2022/03/06 05:31:37;;;;;;;40.00;28.30;;;3.60;99.90;;;;;;5038233;28;20097;-49
2022/03/06 05:34:03;;;;;;;42.78;27.45;;;3.70;99.90;;;;;;5073973;28;20523;-50
2022/03/06 05:36:29;;;;;;;42.58;27.95;;;3.90;99.90;;;;;;5073577;28;20032;-51
2022/03/06 05:38:55;;;;;;;42.30;26.50;;;;;;;;;;5037992;28;20131;-51
2022/03/06 05:41:21;;;;;;;39.55;26.92;;;;;;;;;;5073660;28;20059;-48
2022/03/06 05:43:47;;;;;;;46.30;28.17;;;;;;;;;;5073644;28;20090;-49
2022/03/06 05:46:13;;;;;;;45.70;31.40;;;;;;;;;;5073665;28;20016;-51
2022/03/06 05:48:39;;;;;;;52.03;33.10;;;;;;;;;;5073677;28;20024;-47
2022/03/06 05:51:05;;;;;;;45.67;28.88;;;;;;;;;;5088451;28;20628;-50
2022/03/06 05:53:33;;;;;;;49.20;30.98;;;;;;;;;;5071251;28;20040;-50
2022/03/06 05:55:59;;;;;;;49.17;30.20;;;;;;;;;;5073332;28;20033;-49
2022/03/06 05:58:25;;;;;;;41.13;27.95;;;;;;;;;;5073385;28;20029;-49
2022/03/06 06:00:51;;;;;;;41.78;28.42;;;;;;;;;;5072832;28;20086;-49
2022/03/06 06:03:18;;;;;;;49.60;29.65;;;;;;;;;;5073242;28;20111;-50
2022/03/06 06:05:44;;;;;;;45.97;26.90;;;;;;;;;;5088335;28;20045;-50
2022/03/06 06:08:10;;;;;;;44.75;28.88;;;;;;;;;;5073132;28;20032;-47
2022/03/06 06:10:37;;;;;;;49.72;29.38;;;5.10;99.90;;;;;;5073541;28;20159;-49
2022/03/06 06:13:03;;;;;;;43.28;27.83;;;5.10;99.90;;;;;;5073268;28;20032;-49
2022/03/06 06:15:29;;;;;;;50.28;32.13;;;5.20;99.90;;;;;;5087989;28;20056;-50
2022/03/06 06:17:54;;;;;;;42.92;27.55;;;4.90;99.90;;;;;;5071257;28;20036;-50
2022/03/06 06:20:20;;;;;;;39.45;26.13;;;4.70;99.90;;;;;;5073006;28;20032;-51
2022/03/06 06:22:46;;;;;;;41.50;27.65;;;4.50;99.90;;;;;;5072833;28;20456;-50
2022/03/06 06:25:12;;;;;;;36.50;22.77;;;4.40;99.90;;;;;;5073280;28;20025;-51
2022/03/06 06:27:38;;;;;;;34.72;21.00;;;;;;;;;;5073060;28;20032;-48
2022/03/06 06:30:04;;;;;;;36.72;24.20;;;3.90;99.90;;;;;;5073051;28;20466;-52
2022/03/06 06:32:30;;;;;;;32.20;21.90;;;3.90;99.90;;;;;;5070972;28;20033;-50
2022/03/06 06:34:56;;;;;;;36.13;22.23;;;3.70;99.90;;;;;;5071170;28;20490;-48
2022/03/06 06:37:21;;;;;;;36.42;22.90;;;3.60;99.90;;;;;;5072225;28;20032;-51
2022/03/06 06:39:47;;;;;;;45.92;30.00;;;3.60;99.90;;;;;;5086338;28;20052;-50
2022/03/06 06:42:13;;;;;;;49.20;29.27;;;3.70;99.90;;;;;;5073203;28;20025;-47
2022/03/06 06:44:39;;;;;;;52.00;34.05;;;3.90;99.90;;;;;;5070602;28;20047;-49
2022/03/06 06:47:05;;;;;;;48.38;32.45;;;4.20;99.90;;;;;;5072939;28;20060;-48
2022/03/06 06:49:30;;;;;;;44.80;30.35;;;4.30;99.90;;;;;;5053814;28;20041;-47
2022/03/06 06:51:56;;;;;;;38.38;25.80;;;4.30;99.90;;;;;;5073203;28;20040;-51
2022/03/06 06:54:22;;;;;;;46.55;30.55;;;4.40;99.90;;;;;;5072674;28;20029;-49
2022/03/06 06:56:48;;;;;;;45.03;29.95;;;4.40;99.90;;;;;;5063217;28;20120;-47
2022/03/06 06:59:14;;;;;;;46.53;28.40;;;4.40;99.90;;;;;;5070976;28;20364;-48
2022/03/06 07:01:41;;;;;;;45.17;29.50;;;4.30;99.90;;;;;;5072376;28;20036;-48
2022/03/06 07:04:07;;;;;;;36.58;24.90;;;4.50;99.90;;;;;;5073364;28;20024;-48
2022/03/06 07:06:33;;;;;;;44.92;26.70;;;4.40;99.90;;;;;;5067671;28;20111;-49
2022/03/06 07:08:59;;;;;;;42.35;27.27;;;;;;;;;;5064761;28;20166;-49
2022/03/06 07:11:25;;;;;;;41.35;27.58;;;;;;;;;;5072583;28;20035;-49
2022/03/06 07:13:51;;;;;;;38.95;25.60;;;4.20;99.90;;;;;;5075405;28;20115;-52
2022/03/06 07:16:17;;;;;;;43.50;30.63;;;;;;;;;;5073883;28;20174;-50
2022/03/06 07:18:43;;;;;;;44.05;27.70;;;4.30;99.90;;;;;;5074017;28;20144;-47
2022/03/06 07:21:10;;;;;;;44.90;27.02;;;;;;;;;;5040554;28;20226;-47
2022/03/06 07:23:36;;;;;;;65.05;39.20;;;;;;;;;;5067860;28;20150;-47
2022/03/06 07:26:03;;;;;;;37.83;26.00;;;;;;;;;;5072262;28;20150;-51
2022/03/06 07:28:29;;;;;;;37.80;25.52;;;;;;;;;;5076288;28;20032;-49
2022/03/06 07:30:55;;;;;;;147.32;117.38;;;;;;;;;;5075813;28;20031;-47
2022/03/06 07:33:21;;;;;;;37.20;25.73;;;;;;;;;;5075970;28;20036;-51
2022/03/06 07:35:47;;;;;;;80.53;67.78;;;;;;;;;;5075722;28;20024;-50
2022/03/06 07:38:13;;;;;;;41.60;28.13;;;;;;;;;;5075195;28;20036;-48
2022/03/06 07:40:39;;;;;;;42.55;28.73;;;;;;;;;;5075682;28;20037;-49
2022/03/06 07:43:06;;;;;;;43.72;27.33;;;;;;;;;;5075628;28;20024;-48
2022/03/06 07:45:32;;;;;;;33.60;21.73;;;;;;;;;;5075586;28;20120;-49
2022/03/06 07:47:58;;;;;;;40.42;28.95;;;;;;;;;;5072704;28;20036;-49
2022/03/06 07:50:24;;;;;;;40.55;27.23;;;;;;;;;;5073426;28;20116;-47
2022/03/06 07:52:50;;;;;;;31.00;20.42;;;;;;;;;;5075488;28;20036;-51
2022/03/06 07:55:16;;;;;;;37.67;25.52;;;3.40;99.90;;;;;;5090531;28;20381;-47
2022/03/06 07:57:42;;;;;;;43.45;24.70;;;3.50;99.90;;;;;;5071363;28;20036;-48
2022/03/06 08:00:10;;;;;;;26.27;16.77;;;3.40;99.90;;;;;;5071710;28;20020;-50
2022/03/06 08:02:37;;;;;;;36.60;22.00;;;3.40;99.90;;;;;;5062689;28;20483;-48
2022/03/06 08:05:05;;;;;;;38.53;23.60;;;3.50;99.90;;;;;;5080037;28;20029;-49
2022/03/06 08:07:30;;;;;;;30.08;19.17;;;3.40;99.90;;;;;;5030874;28;20037;-51
2022/03/06 08:09:56;;;;;;;30.00;17.08;;;3.40;99.90;;;;;;5063459;28;20533;-49
2022/03/06 08:12:24;;;;;;;34.28;23.48;;;3.40;99.90;;;;;;5064990;28;20602;-49
2022/03/06 08:14:51;;;;;;;24.48;15.85;;;3.50;99.90;;;;;;5063319;28;20028;-51
2022/03/06 08:17:17;;;;;;;187.80;151.02;;;3.30;99.90;;;;;;5065129;28;20484;-48
2022/03/06 08:19:44;;;;;;;80.03;58.88;;;3.30;99.90;;;;;;5064790;28;20031;-50
2022/03/06 08:22:09;;;;;;;38.85;23.50;;;3.50;99.90;;;;;;5065429;28;20036;-49
2022/03/06 08:24:35;;;;;;;39.22;23.85;;;3.70;99.90;;;;;;5062758;28;20028;-52
2022/03/06 08:27:01;;;;;;;32.92;18.65;;;3.90;99.90;;;;;;5064339;28;20408;-49
2022/03/06 08:29:27;;;;;;;32.15;21.33;;;4.10;99.90;;;;;;5069579;28;20033;-50
2022/03/06 08:31:53;;;;;;;56.67;34.75;;;3.70;99.90;;;;;;5064262;28;20032;-51
2022/03/06 08:34:19;;;;;;;22.70;15.00;;;3.50;99.90;;;;;;5065010;28;20021;-48
2022/03/06 08:36:45;;;;;;;23.38;15.55;;;3.50;99.90;;;;;;5063387;28;20035;-51
2022/03/06 08:39:11;;;;;;;27.55;17.13;;;3.50;99.90;;;;;;5063499;28;20143;-49
2022/03/06 08:41:36;;;;;;;23.50;15.77;;;3.30;99.90;;;;;;5064857;28;20021;-48
2022/03/06 08:44:03;;;;;;;29.15;18.98;;;3.40;99.90;;;;;;5060456;28;20060;-51
2022/03/06 08:46:29;;;;;;;22.98;15.13;;;3.30;99.90;;;;;;5064295;28;20090;-51
2022/03/06 08:48:54;;;;;;;90.15;58.05;;;3.40;99.90;;;;;;5084029;28;20452;-47
2022/03/06 08:51:21;;;;;;;22.10;11.73;;;3.40;99.90;;;;;;5026568;28;20052;-50
2022/03/06 08:53:47;;;;;;;18.90;10.82;;;3.30;99.90;;;;;;4979234;28;20032;-50
2022/03/06 08:56:13;;;;;;;22.35;14.73;;;3.40;99.90;;;;;;5063501;28;20039;-49
2022/03/06 08:58:39;;;;;;;23.30;14.93;;;3.50;99.90;;;;;;5062600;28;20079;-50
2022/03/06 09:01:04;;;;;;;20.23;13.90;;;3.50;99.90;;;;;;5064301;28;20017;-51
2022/03/06 09:03:30;;;;;;;21.35;13.70;;;3.60;99.90;;;;;;5063671;28;20021;-50
2022/03/06 09:05:56;;;;;;;23.00;14.75;;;3.50;99.90;;;;;;5060635;28;20029;-50
2022/03/06 09:08:22;;;;;;;23.00;14.77;;;3.50;99.90;;;;;;5056358;28;20031;-48
2022/03/06 09:10:48;;;;;;;18.63;11.40;;;3.60;99.90;;;;;;5068653;28;20047;-48
2022/03/06 09:13:14;;;;;;;15.32;10.48;;;3.50;99.90;;;;;;5053943;28;20104;-49
2022/03/06 09:15:39;;;;;;;16.02;10.48;;;3.40;99.90;;;;;;5053907;28;20075;-48
2022/03/06 09:18:05;;;;;;;18.30;11.45;;;3.40;99.90;;;;;;5052972;28;20063;-48
2022/03/06 09:20:32;;;;;;;17.75;11.95;;;3.40;99.90;;;;;;5053901;28;20457;-49
2022/03/06 09:22:57;;;;;;;24.77;15.15;;;3.40;99.90;;;;;;5053943;28;20415;-50
2022/03/06 09:25:23;;;;;;;20.10;11.95;;;3.50;99.90;;;;;;5054210;28;20112;-51
2022/03/06 09:27:49;;;;;;;19.90;13.77;;;3.50;99.90;;;;;;5053770;28;20029;-51
2022/03/06 09:30:15;;;;;;;12.68;8.93;;;3.40;99.90;;;;;;5053734;28;20025;-51
2022/03/06 09:32:41;;;;;;;17.50;11.70;;;3.30;99.90;;;;;;5053562;28;20174;-48
2022/03/06 09:35:09;;;;;;;11.63;6.53;;;3.10;99.90;;;;;;5053416;28;20112;-50
2022/03/06 09:37:35;;;;;;;13.07;7.47;;;2.90;99.90;;;;;;5050875;28;20409;-49
2022/03/06 09:40:02;;;;;;;14.23;9.32;;;2.80;99.90;;;;;;5051430;28;20048;-50
2022/03/06 09:42:28;;;;;;;15.13;10.07;;;2.90;99.90;;;;;;5055180;28;20040;-49
2022/03/06 09:44:54;;;;;;;15.80;11.45;;;2.80;99.90;;;;;;5073092;28;20111;-47
2022/03/06 09:47:23;;;;;;;14.45;9.45;;;2.80;99.90;;;;;;5073421;28;20058;-49
2022/03/06 09:49:49;;;;;;;20.35;13.68;;;2.80;99.90;;;;;;5073764;28;20098;-49
2022/03/06 09:52:15;;;;;;;20.05;12.75;;;2.80;99.90;;;;;;5088430;28;20465;-50
2022/03/06 09:54:41;;;;;;;22.00;15.13;;;2.90;99.90;;;;;;5073434;28;20028;-48
2022/03/06 09:57:07;;;;;;;17.45;12.30;;;3.00;99.90;;;;;;5073223;28;20435;-51
2022/03/06 09:59:34;;;;;;;24.73;14.40;;;2.90;99.90;;;;;;5073118;28;20058;-49
2022/03/06 10:02:01;;;;;;;20.67;14.25;;;3.10;99.90;;;;;;5073737;28;20419;-48
2022/03/06 10:04:29;;;;;;;19.02;11.85;;;3.00;99.90;;;;;;5073717;28;20024;-50
2022/03/06 10:07:15;;;;;;;21.92;13.82;;;3.00;99.90;;;;;;5071605;28;20393;-48
2022/03/06 10:09:55;;;;;;;18.33;11.73;;;3.10;99.90;;;;;;5073410;28;20039;-48
2022/03/06 10:12:27;;;;;;;15.25;9.65;;;3.00;99.90;;;;;;5073010;28;20115;-50
2022/03/06 10:14:54;;;;;;;17.30;12.00;;;3.00;99.90;;;;;;5073321;28;20375;-50
2022/03/06 10:17:22;;;;;;;16.70;9.05;;;3.00;99.90;;;;;;5088093;28;20499;-49
2022/03/06 10:19:48;;;;;;;20.23;13.73;;;;;;;;;;5071231;28;20048;-48
2022/03/06 10:33:23;;;;;;;26.80;18.58;;;3.50;99.90;;;;;;5072918;27;20417;-51
2022/03/06 10:35:50;;;;;;;20.13;13.80;;;3.30;99.90;;;;;;5089573;28;20037;-48
2022/03/06 10:38:20;;;;;;;13.88;8.35;;;3.20;99.90;;;;;;5070751;28;20032;-49
2022/03/06 10:40:47;;;;;;;20.45;13.27;;;;;;;;;;5068256;28;20024;-51
2022/03/06 10:43:19;;;;;;;14.57;9.32;;;2.80;99.90;;;;;;5071387;28;20033;-47
2022/03/06 10:45:46;;;;;;;18.05;12.85;;;2.90;99.90;;;;;;5070894;28;20067;-52
2022/03/06 10:48:12;;;;;;;15.13;10.45;;;3.00;99.90;;;;;;5070970;28;20031;-48
2022/03/06 10:50:39;;;;;;;12.98;8.13;;;3.00;99.90;;;;;;5071536;28;20032;-49
2022/03/06 10:53:21;;;;;;;15.65;10.90;;;2.90;99.90;;;;;;5074993;28;20082;-47
2022/03/06 10:55:47;;;;;;;14.05;9.90;;;3.10;99.90;;;;;;5091765;28;20446;-47
2022/03/06 10:58:13;;;;;;;20.55;14.38;;;3.10;99.90;;;;;;5070802;28;20100;-50
2022/03/06 11:00:41;;;;;;;22.83;13.73;;;3.20;99.90;;;;;;5086798;28;20480;-49
2022/03/06 11:03:07;;;;;;;14.63;10.55;;;3.10;99.90;;;;;;5074352;28;20056;-50
2022/03/06 11:05:34;;;;;;;20.20;14.80;;;3.10;99.90;;;;;;5073556;28;20078;-47
2022/03/06 11:08:03;;;;;;;20.02;13.57;;;3.10;99.90;;;;;;5068002;28;20052;-51
2022/03/06 11:10:29;;;;;;;15.50;11.00;;;3.00;99.90;;;;;;5056945;28;20036;-50
2022/03/06 11:12:56;;;;;;;25.95;16.60;;;3.00;99.90;;;;;;5069101;28;20132;-49
2022/03/06 11:15:22;;;;;;;26.38;17.35;;;3.00;99.90;;;;;;5069279;28;20095;-51
2022/03/06 11:17:48;;;;;;;23.67;15.50;;;3.00;99.90;;;;;;5046164;28;20131;-48
2022/03/06 11:20:14;;;;;;;18.73;13.93;;;3.00;99.90;;;;;;5072538;28;20043;-52
2022/03/06 11:22:54;;;;;;;9.52;6.65;;;3.10;99.90;;;;;;5063885;28;20537;-51
2022/03/06 11:25:27;;;;;;;15.25;8.85;;;3.00;99.90;;;;;;5065658;28;20028;-50
2022/03/06 11:28:10;;;;;;;19.17;11.95;;;2.90;99.90;;;;;;5068928;28;20119;-49
2022/03/06 11:30:37;;;;;;;17.02;11.73;;;3.00;99.90;;;;;;5104102;28;20043;-48
2022/03/06 11:33:06;;;;;;;17.83;12.32;;;3.00;99.90;;;;;;5063157;28;20071;-51
2022/03/06 11:35:38;;;;;;;20.90;13.73;;;2.90;99.90;;;;;;5057437;28;20029;-48
2022/03/06 11:38:06;;;;;;;18.98;11.98;;;2.90;99.90;;;;;;5096092;28;20446;-51
2022/03/06 11:40:48;;;;;;;17.45;11.50;;;2.90;99.90;;;;;;5053712;28;20107;-50
2022/03/06 11:43:33;;;;;;;;;;;2.90;99.90;;;;;;5058058;28;20048;-50
2022/03/06 11:45:58;;;;;;;17.63;12.45;;;3.00;99.90;;;;;;5056580;28;20354;-48
2022/03/06 11:48:32;;;;;;;15.45;10.23;;;3.10;99.90;;;;;;5057187;28;20039;-52
2022/03/06 11:51:29;;;;;;;14.68;10.80;;;3.00;99.90;;;;;;5054169;28;20036;-48
2022/03/06 11:53:56;;;;;;;15.02;11.23;;;3.00;99.90;;;;;;5053528;28;20450;-50
2022/03/06 11:56:34;;;;;;;14.40;9.25;;;;;;;;;;5072943;28;20036;-51
2022/03/06 11:59:00;;;;;;;13.35;8.93;;;;;;;;;;5055091;28;20460;-49
2022/03/06 12:01:27;;;;;;;13.55;8.80;;;;;;;;;;5060749;28;20384;-51
2022/03/06 12:04:01;;;;;;;17.58;11.93;;;;;;;;;;5054754;28;20591;-50
2022/03/06 12:06:27;;;;;;;13.43;8.68;;;;;;;;;;5055687;28;20032;-48
2022/03/06 12:08:55;;;;;;;16.48;10.00;;;;;;;;;;5057611;28;20108;-50
2022/03/06 12:11:21;;;;;;;18.48;13.02;;;;;;;;;;5059828;28;20039;-50
2022/03/06 12:13:50;;;;;;;22.10;13.98;;;;;;;;;;5056723;28;20475;-52
2022/03/06 12:16:18;;;;;;;19.13;13.55;;;;;;;;;;5070298;28;20120;-52
2022/03/06 12:19:03;;;;;;;14.82;9.68;;;;;;;;;;5057497;28;20028;-52
2022/03/06 12:21:36;;;;;;;21.70;14.40;;;;;;;;;;5049737;28;20368;-48
2022/03/06 12:24:12;;;;;;;17.08;11.52;;;;;;;;;;5050818;28;20483;-52
2022/03/06 12:26:42;;;;;;;23.38;14.57;;;;;;;;;;5055152;28;20543;-49
2022/03/06 12:29:08;;;;;;;25.23;16.27;;;;;;;;;;5053795;28;20036;-50
2022/03/06 12:31:36;;;;;;;24.83;16.33;;;;;;;;;;5059029;28;20045;-51
2022/03/06 12:34:22;;;;;;;25.60;16.88;;;;;;;;;;5088894;28;20036;-49
2022/03/06 12:36:55;;;;;;;18.08;12.25;;;;;;;;;;5058145;28;20029;-50
2022/03/06 12:39:21;;;;;;;19.80;14.13;;;;;;;;;;5052827;28;20040;-49
2022/03/06 12:41:47;;;;;;;16.23;12.48;;;;;;;;;;5053236;28;20040;-51
2022/03/06 12:44:19;;;;;;;19.50;13.80;;;;;;;;;;5056124;28;20027;-48
2022/03/06 12:46:47;;;;;;;18.05;11.48;;;;;;;;;;5057669;28;20510;-52
2022/03/06 12:49:13;;;;;;;15.07;10.65;;;;;;;;;;5054163;28;20404;-50
2022/03/06 12:51:40;;;;;;;15.60;11.13;;;;;;;;;;5069232;28;20028;-53
2022/03/06 12:54:08;;;;;;;12.23;8.25;;;;;;;;;;5067680;28;20040;-47
2022/03/06 12:56:36;;;;;;;11.57;7.93;;;;;;;;;;5057518;28;20068;-52
2022/03/06 12:59:04;;;;;;;16.67;11.40;;;;;;;;;;5060095;28;20079;-49
2022/03/06 13:01:34;;;;;;;17.55;11.80;;;;;;;;;;5054020;28;20052;-51
2022/03/06 13:04:01;;;;;;;15.25;10.95;;;;;;;;;;5052945;28;20025;-50
2022/03/06 13:06:29;;;;;;;13.90;11.00;;;;;;;;;;5059300;28;20051;-51
2022/03/06 13:08:55;;;;;;;16.10;12.68;;;;;;;;;;5054160;28;20979;-48
2022/03/06 13:11:21;;;;;;;15.73;11.40;;;;;;;;;;5052738;28;20159;-51
2022/03/06 13:13:47;;;;;;;15.32;11.02;;;;;;;;;;5042067;28;20029;-51
2022/03/06 13:16:23;;;;;;;12.93;9.00;;;;;;;;;;5051389;28;20032;-51
2022/03/06 13:18:49;;;;;;;15.35;11.23;;;;;;;;;;5052782;28;20480;-50